Holmes Center, Illinois
Current Conditions -  °F | °C
As of 10:15 AM on Thursday 29 Jan 2015 (Local Time) from KC75 Reporting Station
Overcast Overcast  
Wind Chill: 23°   Ceiling: 2000
Heat Index: 34°   Visibility: 7mi
Dew Point: 29°   Wind: 20mph
Humidity: 82%   Direction: 310°NW
Pressure: 29.99"   Gusts: 25mph
Location:  40.915°N, 89.5303°W
Report Text: KC75 291615Z AUTO 31017G22KT 7SM OVC020 01/M02 A2999 RMK AO2 T00121016
Loading
Personal Weather Stations






























Interactive Weather Map New forecast layout! Learn more

10-Day Weather Forecast

Advertisements
Track Severe Weather on mobile